Ordot, Guam
Current Conditions -  °F | °C
As of 10:54 PM on Wednesday 26 Nov 2014 (Local Time) from PGUM Reporting Station
Clear Clear  
Wind Chill: 82°   Ceiling: Unl
Heat Index: 89°   Visibility: 10mi
Dew Point: 75°   Wind: 10mph
Humidity: 79%   Direction: 60°ENE
Pressure: 29.89"   Gusts: NA
Location:  13.4744°N, 144.7478°E
Report Text: PGUM 261254Z 06009KT 10SM CLR 28/24 A2989 RMK AO2 SLP112 T02780239
Loading
Personal Weather Stations






























Interactive Weather Map New forecast layout! Learn more

10-Day Weather Forecast

Advertisements
Track Severe Weather on mobile